Sidney Richland Municipal Airport
KSDY : now visible

Airfield :











YOU CAN JOIN US ON...

 
LOGIN :

Register | Disclaimer

   EN    FR    IT 

 









Legend :    VFR   Marginal VFR   IFR   Intensive IFR   Very Intensive IFR
Visi :
Ceiling :
>= 8 km
>= 3000ft
5 to 8 km
1000 to 3000 ft
1500m to 5 km
500 to 1000 ft
800 to 1500m
200 to 500 ft
< 800m
< 200 ft
Symbols :   Thunderstorms  Fog  Heavy snow  Heavy precipitations  Wind > 20 kt






- Airport Elevation : 1985 ft


KSDY - Sidney Richland Municipal

CURRENT METAR :
  • 021356Z AUTO 36005KT 10SM OVC095 M21/M26 A3050 RMK AO2 SLP380 T12061256 FZRANO

EXPIRED METARs :
  • 021256Z AUTO 36008KT 10SM OVC095 M20/M25 A3048 RMK AO2 SLP370 T12001250 FZRANO
  • 021156Z AUTO 36010KT 10SM BKN100 M20/M24 RMK AO2 SLPNO 6//// 7//// T12001244 11122 21200 FZRANO $

TAF KSDY
Valid from the 02 at 12:00 until the 03 at 12:00 UTC


021120Z 0212/0312 36010KT P6SM SCT070
FM022300 10007KT P6SM OVC080
KZLC FIR / North America



MET'MAP, your aeronautical weather chart ! - Copyright ORBIFLY December 2007 - Disclaimer

ORBIFLY MET'MAP TEAM :

Programming & Development : Alexandra Zaïnal
Original concept : Baudouin d'Aumeries
Technical & hardware support : Manuel Goepfert
Assistance : Marc-Olivier Méhu




SOURCES & CREDITS :

   NOAA       Earth
Advisory